Terminal Aerodrome Forecast
Issued by NWS Wilmington, OH

Current Version | Previous Version | Graphics & Text | Print | Product List | Glossary On
Versions: 1 2 3 4 5 6 7 8 9 10 11 12 13 14 15 16 17 18 19 20 21 22
000
FTUS41 KILN 260934 AAB
TAFDAY
TAF AMD
KDAY 260934Z 2610/2706 27012KT P6SM VCSH SCT050 BKN120
     FM261200 27014G22KT P6SM -SHRA SCT025 BKN035
      TEMPO 2612/2616 4SM -SHRA BKN025
     FM261600 29012G20KT P6SM BKN025
     FM261900 28012G18KT P6SM SKC
     FM270000 25005KT P6SM SKC=

USA.gov is the U.S. government's official web portal to all federal, state and local government web resources and services.